Time;durP1;ratioP1;P1;durP2;ratioP2;P2;SDS_P1;SDS_P2;PMS_P1;PMS_P2;Temp;Humidity;BMP_temperature;BMP_pressure;BME280_temperature;BME280_humidity;BME280_pressure;Samples;Min_cycle;Max_cycle;Signal;HPM_P1;HPM_P2
2023/05/21 00:01:24;;;;;;;9.43;6.00;;;15.70;99.90;;;;;;4977837;28;20432;-73
2023/05/21 00:03:52;;;;;;;7.57;6.20;;;15.70;99.90;;;;;;4978061;28;20445;-73
2023/05/21 00:06:21;;;;;;;7.33;5.90;;;15.70;99.90;;;;;;4977619;28;20497;-73
2023/05/21 00:08:50;;;;;;;8.90;6.57;;;15.60;99.90;;;;;;4978019;28;20890;-73
2023/05/21 00:11:19;;;;;;;7.90;6.30;;;15.60;99.90;;;;;;4977944;28;20959;-73
2023/05/21 00:13:47;;;;;;;8.50;6.63;;;15.60;99.90;;;;;;4977750;28;20409;-73
2023/05/21 00:16:15;;;;;;;7.80;6.70;;;15.50;99.90;;;;;;4977313;28;21004;-73
2023/05/21 00:18:44;;;;;;;8.63;6.30;;;15.50;99.90;;;;;;4977519;28;20529;-72
2023/05/21 00:21:12;;;;;;;8.03;6.23;;;15.50;99.90;;;;;;4977455;28;20416;-73
2023/05/21 00:23:41;;;;;;;8.43;6.20;;;15.50;99.90;;;;;;4976256;28;20484;-73
2023/05/21 00:26:09;;;;;;;8.57;5.50;;;15.40;99.90;;;;;;4977482;28;20796;-73
2023/05/21 00:28:39;;;;;;;8.13;6.50;;;15.40;99.90;;;;;;4977842;28;20434;-73
2023/05/21 00:31:07;;;;;;;9.53;6.07;;;15.30;99.90;;;;;;4975982;28;20511;-73
2023/05/21 00:33:35;;;;;;;9.70;6.97;;;15.30;99.90;;;;;;4977228;28;20441;-73
2023/05/21 00:36:04;;;;;;;10.50;6.93;;;15.30;99.90;;;;;;4975826;28;20532;-73
2023/05/21 00:38:32;;;;;;;8.20;5.23;;;15.20;99.90;;;;;;4977189;28;20444;-73
2023/05/21 00:41:02;;;;;;;7.87;5.77;;;15.20;99.90;;;;;;4975879;28;20449;-73
2023/05/21 00:43:31;;;;;;;7.90;5.60;;;15.20;99.90;;;;;;4976852;28;20576;-73
2023/05/21 00:46:01;;;;;;;8.67;5.60;;;15.10;99.90;;;;;;4977008;28;20442;-73
2023/05/21 00:48:31;;;;;;;7.73;5.87;;;15.10;99.90;;;;;;4977324;28;20404;-73
2023/05/21 00:50:59;;;;;;;8.33;5.50;;;15.10;99.90;;;;;;4977015;28;20460;-73
2023/05/21 00:53:28;;;;;;;7.67;5.83;;;15.00;99.90;;;;;;4975521;28;20552;-73
2023/05/21 00:55:57;;;;;;;7.67;5.07;;;15.00;99.90;;;;;;4977470;28;20508;-73
2023/05/21 00:58:25;;;;;;;10.40;6.97;;;15.00;99.90;;;;;;4975463;28;20474;-73
2023/05/21 01:00:55;;;;;;;9.43;6.00;;;15.00;99.90;;;;;;4976851;28;20508;-73
2023/05/21 01:03:25;;;;;;;7.70;5.17;;;14.90;99.90;;;;;;4975224;28;20473;-72
2023/05/21 01:05:58;;;;;;;10.30;5.83;;;14.90;99.90;;;;;;4975378;28;20466;-73
2023/05/21 01:08:27;;;;;;;7.83;5.80;;;14.90;99.90;;;;;;4976953;28;20480;-73
2023/05/21 01:10:56;;;;;;;9.63;6.67;;;14.90;99.90;;;;;;4976841;28;20442;-73
2023/05/21 01:13:25;;;;;;;8.67;6.43;;;14.80;99.90;;;;;;4976758;28;20461;-72
2023/05/21 01:15:54;;;;;;;9.37;6.60;;;14.80;99.90;;;;;;4975021;28;20474;-73
2023/05/21 01:18:22;;;;;;;8.70;5.70;;;14.80;99.90;;;;;;4975260;28;20424;-73
2023/05/21 01:20:52;;;;;;;6.70;5.47;;;14.70;99.90;;;;;;4976654;28;20438;-73
2023/05/21 01:23:23;;;;;;;6.23;4.70;;;14.70;99.90;;;;;;4975487;28;20434;-73
2023/05/21 01:25:51;;;;;;;8.00;5.47;;;14.70;99.90;;;;;;4974919;28;20466;-73
2023/05/21 01:28:19;;;;;;;8.40;5.30;;;14.60;99.90;;;;;;4977005;28;20552;-73
2023/05/21 01:30:48;;;;;;;6.00;5.13;;;14.60;99.90;;;;;;4981587;28;20470;-73
2023/05/21 01:33:19;;;;;;;7.43;6.23;;;14.60;99.90;;;;;;4978848;28;20437;-73
2023/05/21 01:35:54;;;;;;;8.40;5.70;;;14.50;99.90;;;;;;4975341;28;20474;-74
2023/05/21 01:38:29;;;;;;;7.83;5.63;;;14.50;99.90;;;;;;4976204;28;20500;-73
2023/05/21 01:41:02;;;;;;;9.07;5.90;;;14.50;99.90;;;;;;4976627;28;20449;-73
2023/05/21 01:43:33;;;;;;;7.27;5.37;;;14.50;99.90;;;;;;4976343;28;20491;-73
2023/05/21 01:46:02;;;;;;;10.27;6.00;;;14.50;99.90;;;;;;4974745;28;20473;-73
2023/05/21 01:48:34;;;;;;;7.83;5.80;;;14.40;99.90;;;;;;4974703;28;20461;-73
2023/05/21 01:51:04;;;;;;;7.90;4.97;;;14.40;99.90;;;;;;4975899;28;20446;-72
2023/05/21 01:53:34;;;;;;;6.87;5.67;;;14.40;99.90;;;;;;4976243;28;20792;-73
2023/05/21 01:56:02;;;;;;;8.33;6.20;;;14.40;99.90;;;;;;4974451;28;20565;-73
2023/05/21 01:58:30;;;;;;;8.13;6.00;;;14.30;99.90;;;;;;4974436;28;20449;-73
2023/05/21 02:00:59;;;;;;;9.93;5.53;;;14.30;99.90;;;;;;4974459;28;20430;-73
2023/05/21 02:03:29;;;;;;;7.87;5.20;;;14.20;99.90;;;;;;4975808;28;20847;-73
2023/05/21 02:05:58;;;;;;;7.30;6.07;;;14.20;99.90;;;;;;4974241;28;20487;-73
2023/05/21 02:08:26;;;;;;;10.87;5.90;;;14.20;99.90;;;;;;4974343;28;20441;-72
2023/05/21 02:10:56;;;;;;;9.30;5.60;;;14.20;99.90;;;;;;4975433;28;20525;-73
2023/05/21 02:13:24;;;;;;;7.60;5.37;;;14.20;99.90;;;;;;4975697;28;20477;-73
2023/05/21 02:15:54;;;;;;;7.00;5.73;;;14.20;99.90;;;;;;4973281;28;20500;-73
2023/05/21 02:18:25;;;;;;;7.10;5.80;;;14.10;99.90;;;;;;4974221;28;20450;-73
2023/05/21 02:20:53;;;;;;;7.60;5.93;;;14.10;99.90;;;;;;4975767;28;20469;-73
2023/05/21 02:23:21;;;;;;;10.43;5.90;;;14.10;99.90;;;;;;4975318;28;20430;-73
2023/05/21 02:25:50;;;;;;;9.07;5.37;;;14.10;99.90;;;;;;4975463;28;20590;-72
2023/05/21 02:28:20;;;;;;;8.97;5.50;;;14.00;99.90;;;;;;4974069;28;20456;-72
2023/05/21 02:30:48;;;;;;;7.60;6.07;;;14.00;99.90;;;;;;4973791;28;20450;-73
2023/05/21 02:33:16;;;;;;;8.87;5.93;;;14.00;99.90;;;;;;4975211;28;20524;-72
2023/05/21 02:35:46;;;;;;;7.37;6.33;;;13.90;99.90;;;;;;4973723;28;20508;-71
2023/05/21 02:38:18;;;;;;;8.00;5.77;;;13.90;99.90;;;;;;4975005;28;20434;-71
2023/05/21 02:40:46;;;;;;;6.83;5.60;;;13.90;99.90;;;;;;4973819;28;20873;-71
2023/05/21 02:43:15;;;;;;;10.07;6.10;;;13.90;99.90;;;;;;4973755;28;20450;-71
2023/05/21 02:45:46;;;;;;;7.73;6.43;;;13.80;99.90;;;;;;4974925;28;20488;-71
2023/05/21 02:48:14;;;;;;;7.43;5.67;;;13.80;99.90;;;;;;4973616;28;21018;-71
2023/05/21 02:50:42;;;;;;;7.73;6.30;;;13.80;99.90;;;;;;4973594;28;20453;-71
2023/05/21 02:53:11;;;;;;;8.60;6.03;;;13.80;99.90;;;;;;4974752;28;20441;-71
2023/05/21 02:55:40;;;;;;;7.43;5.70;;;13.70;99.90;;;;;;4974476;28;20470;-71
2023/05/21 02:58:12;;;;;;;7.57;5.67;;;13.80;99.90;;;;;;4973649;28;20512;-71
2023/05/21 03:00:40;;;;;;;8.90;6.20;;;13.70;99.90;;;;;;4974105;28;20475;-71
2023/05/21 03:03:10;;;;;;;8.23;6.27;;;13.70;99.90;;;;;;4973331;28;20446;-71
2023/05/21 03:05:38;;;;;;;10.73;6.60;;;13.70;99.90;;;;;;4973055;28;20465;-71
2023/05/21 03:08:06;;;;;;;7.43;5.90;;;13.60;99.90;;;;;;4974523;28;20438;-71
2023/05/21 03:10:35;;;;;;;7.50;5.67;;;13.70;99.90;;;;;;4974351;28;20484;-71
2023/05/21 03:13:05;;;;;;;7.90;6.20;;;13.70;99.90;;;;;;4974312;28;20939;-71
2023/05/21 03:15:37;;;;;;;8.20;6.17;;;13.60;99.90;;;;;;4973119;28;20560;-72
2023/05/21 03:18:06;;;;;;;8.57;6.50;;;13.60;99.90;;;;;;4972989;28;20563;-73
2023/05/21 03:20:42;;;;;;;12.03;7.90;;;13.60;99.90;;;;;;4974341;28;20493;-73
2023/05/21 03:23:11;;;;;;;10.83;7.20;;;13.60;99.90;;;;;;4973228;28;20463;-73
2023/05/21 03:25:44;;;;;;;9.77;7.13;;;13.60;99.90;;;;;;4974570;28;20465;-73
2023/05/21 03:28:13;;;;;;;8.00;6.83;;;13.50;99.90;;;;;;4972768;28;20442;-72
2023/05/21 03:30:48;;;;;;;11.10;6.93;;;13.50;99.90;;;;;;4972692;28;20932;-73
2023/05/21 03:33:28;;;;;;;10.47;6.03;;;13.50;99.90;;;;;;4974751;28;20839;-72
2023/05/21 03:35:59;;;;;;;9.30;6.60;;;13.40;99.90;;;;;;4972909;28;20497;-73
2023/05/21 03:38:30;;;;;;;10.20;7.10;;;13.40;99.90;;;;;;4972986;28;20487;-72
2023/05/21 03:40:58;;;;;;;9.13;6.43;;;13.40;99.90;;;;;;4972936;28;20453;-73
2023/05/21 03:43:27;;;;;;;10.77;7.60;;;13.40;99.90;;;;;;4974088;28;20943;-73
2023/05/21 03:45:55;;;;;;;9.93;7.83;;;13.40;99.90;;;;;;4972741;28;20495;-73
2023/05/21 03:48:42;;;;;;;8.93;6.90;;;13.40;99.90;;;;;;4974423;28;20425;-73
2023/05/21 03:51:16;;;;;;;8.83;6.60;;;13.30;99.90;;;;;;4972888;28;20446;-72
2023/05/21 03:53:45;;;;;;;8.17;6.20;;;13.30;99.90;;;;;;4973223;28;20481;-73
2023/05/21 03:56:13;;;;;;;10.50;7.27;;;13.30;99.90;;;;;;4973038;28;20477;-72
2023/05/21 03:58:42;;;;;;;8.73;6.77;;;13.20;99.90;;;;;;4973238;28;20477;-72
2023/05/21 04:01:11;;;;;;;8.80;6.47;;;13.20;99.90;;;;;;4972735;28;20504;-72
2023/05/21 04:03:39;;;;;;;8.70;7.00;;;13.20;99.90;;;;;;4973801;28;20973;-72
2023/05/21 04:06:09;;;;;;;10.37;6.80;;;13.20;99.90;;;;;;4972570;28;21010;-72
2023/05/21 04:08:41;;;;;;;8.23;6.83;;;13.20;99.90;;;;;;4973420;28;20449;-72
2023/05/21 04:11:09;;;;;;;8.90;6.43;;;13.20;99.90;;;;;;4972673;28;20489;-72
2023/05/21 04:13:38;;;;;;;8.03;6.40;;;13.20;99.90;;;;;;4972603;28;20446;-73
2023/05/21 04:16:07;;;;;;;7.57;6.47;;;13.20;99.90;;;;;;4974170;28;20962;-73
2023/05/21 04:18:36;;;;;;;10.93;7.20;;;13.20;99.90;;;;;;4972366;28;20465;-73
2023/05/21 04:21:05;;;;;;;10.60;7.07;;;13.10;99.90;;;;;;4972403;28;20516;-72
2023/05/21 04:23:35;;;;;;;8.30;6.27;;;13.10;99.90;;;;;;4973653;28;20438;-72
2023/05/21 04:26:11;;;;;;;8.77;6.77;;;13.20;99.90;;;;;;4972528;28;20553;-72
2023/05/21 04:28:42;;;;;;;9.53;6.90;;;13.10;99.90;;;;;;4972756;28;20449;-72
2023/05/21 04:31:11;;;;;;;8.13;6.40;;;13.10;99.90;;;;;;4972500;28;20449;-72
2023/05/21 04:33:40;;;;;;;7.73;6.40;;;13.10;99.90;;;;;;4972447;28;20453;-72
2023/05/21 04:36:10;;;;;;;8.17;5.73;;;13.10;99.90;;;;;;4972304;28;20472;-72
2023/05/21 04:38:40;;;;;;;8.97;7.30;;;13.10;99.90;;;;;;4973605;28;20473;-72
2023/05/21 04:41:10;;;;;;;7.87;6.50;;;13.10;99.90;;;;;;4977045;28;20474;-72
2023/05/21 04:43:42;;;;;;;9.33;6.73;;;13.10;99.90;;;;;;4975867;28;20452;-72
2023/05/21 04:46:12;;;;;;;11.30;8.87;;;13.10;99.90;;;;;;4978323;28;20999;-72
2023/05/21 04:48:41;;;;;;;8.90;5.90;;;13.20;99.90;;;;;;4980081;28;20456;-73
2023/05/21 04:51:09;;;;;;;9.57;7.70;;;13.10;99.90;;;;;;4978009;28;20469;-73
2023/05/21 04:53:37;;;;;;;9.93;8.50;;;13.20;99.90;;;;;;4976445;28;20508;-73
2023/05/21 04:56:06;;;;;;;9.60;7.22;;;13.20;99.90;;;;;;4976370;28;20508;-72
2023/05/21 04:58:36;;;;;;;7.80;6.90;;;13.30;99.90;;;;;;4975659;28;20246;-72
2023/05/21 05:01:04;;;;;;;11.57;7.23;;;13.30;99.90;;;;;;4975569;28;20950;-72
2023/05/21 05:03:32;;;;;;;10.00;7.40;;;13.30;99.90;;;;;;4975339;28;20449;-72
2023/05/21 05:06:03;;;;;;;8.33;6.20;;;13.30;99.90;;;;;;4975401;28;20507;-72
2023/05/21 05:08:31;;;;;;;9.63;7.10;;;13.20;99.90;;;;;;4975562;28;20955;-72
2023/05/21 05:10:59;;;;;;;8.43;6.30;;;13.20;99.90;;;;;;4975428;28;20442;-72
2023/05/21 05:13:27;;;;;;;7.93;6.63;;;13.20;99.90;;;;;;4976292;28;20458;-74
2023/05/21 05:15:57;;;;;;;7.80;6.17;;;13.20;99.90;;;;;;4977250;28;20461;-73
2023/05/21 05:18:26;;;;;;;8.60;6.70;;;13.20;99.90;;;;;;4975269;28;20524;-73
2023/05/21 05:20:55;;;;;;;7.30;6.10;;;13.20;99.90;;;;;;4976490;28;20438;-73
2023/05/21 05:23:23;;;;;;;7.70;6.27;;;13.30;99.90;;;;;;4975187;28;20815;-73
2023/05/21 05:25:51;;;;;;;11.57;7.50;;;13.20;99.90;;;;;;4975178;28;20516;-73
2023/05/21 05:28:19;;;;;;;8.10;6.20;;;13.30;99.90;;;;;;4975091;28;20453;-73
2023/05/21 05:30:48;;;;;;;7.53;6.67;;;13.30;99.90;;;;;;4975124;28;20446;-73
2023/05/21 05:33:23;;;;;;;8.10;6.80;;;13.30;99.90;;;;;;4975140;28;20437;-72
2023/05/21 05:35:52;;;;;;;7.23;6.53;;;13.30;99.90;;;;;;4974977;28;20488;-73
2023/05/21 05:38:21;;;;;;;8.43;7.07;;;13.40;99.90;;;;;;4974878;28;20476;-74
2023/05/21 05:40:49;;;;;;;8.17;6.47;;;13.40;99.90;;;;;;4976448;28;20464;-74
2023/05/21 05:43:17;;;;;;;9.63;6.87;;;13.40;99.90;;;;;;4975126;28;20939;-73
2023/05/21 05:45:46;;;;;;;7.17;5.70;;;13.40;99.90;;;;;;4974820;28;20461;-73
2023/05/21 05:48:15;;;;;;;10.03;6.57;;;13.40;99.90;;;;;;4975115;28;20454;-73
2023/05/21 05:50:45;;;;;;;7.43;6.20;;;13.40;99.90;;;;;;4973787;28;21014;-73
2023/05/21 05:53:14;;;;;;;7.40;6.57;;;13.40;99.90;;;;;;4974896;28;20450;-73
2023/05/21 05:55:43;;;;;;;7.30;6.30;;;13.50;99.90;;;;;;4975688;28;20465;-72
2023/05/21 05:58:11;;;;;;;8.03;6.23;;;13.50;99.90;;;;;;4976085;28;20473;-73
2023/05/21 06:00:51;;;;;;;8.47;6.90;;;13.50;99.90;;;;;;4975373;28;20442;-73
2023/05/21 06:03:19;;;;;;;8.77;6.20;;;13.50;99.90;;;;;;4974568;28;20901;-73
2023/05/21 06:05:50;;;;;;;8.40;6.83;;;13.60;99.90;;;;;;4974489;28;20465;-73
2023/05/21 06:08:18;;;;;;;8.63;6.80;;;13.60;99.90;;;;;;4974471;28;20473;-73
2023/05/21 06:10:47;;;;;;;10.33;6.70;;;13.60;99.90;;;;;;4975707;28;20532;-73
2023/05/21 06:13:15;;;;;;;7.73;6.40;;;13.70;99.90;;;;;;4975559;28;20450;-73
2023/05/21 06:15:43;;;;;;;7.70;6.60;;;13.70;99.90;;;;;;4975738;28;20501;-73
2023/05/21 06:18:12;;;;;;;9.30;5.90;;;13.70;99.90;;;;;;4974294;28;20895;-73
2023/05/21 06:20:41;;;;;;;7.83;6.33;;;13.70;99.90;;;;;;4975747;28;20448;-73
2023/05/21 06:23:11;;;;;;;7.20;6.30;;;13.80;99.90;;;;;;4974412;28;21012;-73
2023/05/21 06:25:40;;;;;;;8.30;5.70;;;13.80;99.90;;;;;;4974761;28;20532;-75
2023/05/21 06:28:09;;;;;;;8.97;7.20;;;13.90;99.90;;;;;;4974080;28;20456;-76
2023/05/21 06:30:38;;;;;;;8.67;6.70;;;13.90;99.90;;;;;;4973978;28;20886;-76
2023/05/21 06:33:06;;;;;;;7.53;6.70;;;14.00;99.90;;;;;;4974027;28;20424;-76
2023/05/21 06:35:35;;;;;;;12.23;7.00;;;14.00;99.90;;;;;;4974035;28;20501;-77
2023/05/21 06:38:05;;;;;;;9.97;7.70;;;14.00;99.90;;;;;;4974248;28;20478;-77
2023/05/21 06:40:35;;;;;;;10.23;6.77;;;14.10;99.90;;;;;;4973819;28;21019;-77
2023/05/21 06:43:04;;;;;;;9.20;7.57;;;14.10;99.90;;;;;;4974204;28;20446;-76
2023/05/21 06:45:32;;;;;;;9.10;7.20;;;14.10;99.90;;;;;;4976601;28;20461;-76
2023/05/21 06:48:06;;;;;;;11.00;7.07;;;14.20;99.90;;;;;;4975184;28;20464;-77
2023/05/21 06:50:35;;;;;;;7.93;7.10;;;14.20;99.90;;;;;;4975093;28;20943;-76
2023/05/21 06:53:03;;;;;;;8.20;7.40;;;14.30;99.90;;;;;;4974923;28;20565;-76
2023/05/21 06:55:32;;;;;;;8.03;7.03;;;14.30;99.90;;;;;;4974225;28;20473;-77
2023/05/21 06:58:21;;;;;;;8.83;7.37;;;14.40;99.90;;;;;;4973688;28;20473;-76
2023/05/21 07:00:50;;;;;;;10.40;8.50;;;14.40;99.90;;;;;;4973586;28;20793;-77
2023/05/21 07:03:18;;;;;;;8.70;7.80;;;14.50;99.90;;;;;;4974096;28;20446;-76
2023/05/21 07:05:47;;;;;;;9.90;8.43;;;14.50;99.90;;;;;;4973628;28;20560;-76
2023/05/21 07:08:15;;;;;;;8.60;7.50;;;14.60;99.90;;;;;;4973622;28;20453;-77
2023/05/21 07:10:44;;;;;;;9.00;8.07;;;14.70;99.90;;;;;;4973552;28;20518;-77
2023/05/21 07:13:12;;;;;;;10.30;8.00;;;14.70;99.90;;;;;;4974948;28;20412;-76
2023/05/21 07:15:41;;;;;;;9.07;8.00;;;14.80;99.90;;;;;;4973466;28;20481;-76
2023/05/21 07:18:10;;;;;;;11.20;7.67;;;14.90;99.90;;;;;;4973796;28;20584;-76
2023/05/21 07:20:39;;;;;;;9.27;8.37;;;14.90;99.90;;;;;;4973971;28;20543;-77
2023/05/21 07:23:10;;;;;;;11.17;9.40;;;15.00;99.90;;;;;;4974185;28;20445;-76
2023/05/21 07:25:39;;;;;;;10.23;8.80;;;15.00;99.90;;;;;;4974925;28;20857;-77
2023/05/21 07:28:07;;;;;;;9.57;8.67;;;15.10;99.90;;;;;;4975853;28;20536;-76
2023/05/21 07:30:36;;;;;;;10.47;8.97;;;15.10;99.90;;;;;;4976680;28;20851;-77
2023/05/21 07:33:11;;;;;;;10.53;9.40;;;15.20;99.90;;;;;;4978356;28;20450;-76
2023/05/21 07:35:40;;;;;;;11.40;9.60;;;15.30;99.90;;;;;;4981525;28;20444;-76
2023/05/21 07:38:08;;;;;;;12.37;9.40;;;15.30;99.90;;;;;;4974692;28;20844;-77
2023/05/21 07:40:36;;;;;;;10.47;9.47;;;15.40;99.90;;;;;;4975206;28;20446;-77
2023/05/21 07:43:05;;;;;;;11.83;9.47;;;15.50;99.90;;;;;;4973199;28;20446;-76
2023/05/21 07:45:34;;;;;;;13.43;9.57;;;15.50;99.90;;;;;;4973409;28;20843;-77
2023/05/21 07:48:05;;;;;;;11.77;9.87;;;15.60;99.90;;;;;;4973007;28;20541;-76
2023/05/21 07:50:37;;;;;;;10.90;9.77;;;15.60;99.90;;;;;;4973275;28;20520;-76
2023/05/21 07:53:05;;;;;;;11.57;10.37;;;15.70;99.90;;;;;;4973968;28;20804;-76
2023/05/21 07:55:35;;;;;;;13.27;11.97;;;15.70;99.90;;;;;;4973096;28;20564;-77
2023/05/21 07:58:03;;;;;;;14.40;10.83;;;15.80;99.90;;;;;;4974421;28;20460;-77
2023/05/21 08:00:43;;;;;;;12.07;10.57;;;15.80;99.90;;;;;;4973134;28;20455;-77
2023/05/21 08:03:12;;;;;;;15.20;11.07;;;15.90;99.90;;;;;;4972952;28;20529;-77
2023/05/21 08:05:43;;;;;;;12.90;11.53;;;16.00;99.90;;;;;;4972846;28;20448;-77
2023/05/21 08:08:11;;;;;;;13.80;12.40;;;16.00;99.90;;;;;;4973052;28;20442;-77
2023/05/21 08:10:40;;;;;;;12.77;11.40;;;16.10;99.90;;;;;;4973011;28;20869;-78
2023/05/21 08:13:08;;;;;;;13.60;10.67;;;16.10;99.90;;;;;;4975655;28;20435;-78
2023/05/21 08:15:36;;;;;;;15.50;12.37;;;16.20;99.90;;;;;;4980296;28;20471;-77
2023/05/21 08:18:05;;;;;;;13.07;11.70;;;16.20;99.90;;;;;;4978473;28;20445;-77
2023/05/21 08:20:35;;;;;;;13.60;12.33;;;16.30;99.90;;;;;;4978151;28;20466;-77
2023/05/21 08:23:05;;;;;;;13.63;12.30;;;16.30;99.90;;;;;;4977127;28;20453;-77
2023/05/21 08:25:40;;;;;;;14.37;12.87;;;16.40;99.90;;;;;;4977200;28;20527;-74
2023/05/21 08:28:10;;;;;;;14.83;13.27;;;16.40;99.90;;;;;;4976812;28;20420;-74
2023/05/21 08:30:38;;;;;;;15.87;14.27;;;16.40;99.90;;;;;;4976338;28;20441;-75
2023/05/21 08:33:06;;;;;;;16.07;14.47;;;16.50;99.90;;;;;;4976221;28;20433;-76
2023/05/21 08:35:35;;;;;;;15.93;14.23;;;16.60;99.90;;;;;;4976253;28;20846;-75
2023/05/21 08:38:29;;;;;;;16.40;14.90;;;16.70;99.90;;;;;;4977867;28;20511;-76
2023/05/21 08:41:13;;;;;;;16.53;14.83;;;16.80;99.90;;;;;;4978859;28;20492;-76
2023/05/21 08:43:45;;;;;;;16.70;15.20;;;16.80;99.90;;;;;;4977578;28;20985;-76
2023/05/21 08:46:21;;;;;;;16.73;15.03;;;16.90;99.90;;;;;;4978133;28;20802;-75
2023/05/21 08:48:53;;;;;;;17.03;15.30;;;17.00;99.90;;;;;;4978909;28;20424;-76
2023/05/21 08:51:22;;;;;;;17.20;15.53;;;17.10;99.90;;;;;;4978403;28;20420;-76
2023/05/21 08:53:55;;;;;;;16.67;15.07;;;17.30;99.90;;;;;;4978846;28;20515;-76
2023/05/21 08:56:24;;;;;;;17.90;16.10;;;17.30;99.90;;;;;;4979518;28;20435;-75
2023/05/21 08:58:55;;;;;;;17.60;15.80;;;17.40;99.90;;;;;;4977114;28;20635;-76
2023/05/21 09:01:27;;;;;;;16.97;15.20;;;17.50;99.90;;;;;;4977233;28;20544;-75
2023/05/21 09:04:06;;;;;;;18.30;16.40;;;17.60;99.90;;;;;;4977551;28;20450;-76
2023/05/21 09:06:49;;;;;;;18.37;16.67;;;17.70;99.90;;;;;;4978266;28;20790;-75
2023/05/21 09:09:32;;;;;;;18.00;16.23;;;17.80;99.90;;;;;;4977823;28;20453;-75
2023/05/21 09:12:01;;;;;;;17.77;15.83;;;17.90;99.90;;;;;;4977444;28;20420;-76
2023/05/21 09:14:31;;;;;;;18.27;16.47;;;17.90;99.90;;;;;;4977461;28;20515;-76
2023/05/21 09:17:25;;;;;;;19.00;17.17;;;18.10;99.90;;;;;;4977064;28;20442;-76
2023/05/21 09:20:12;;;;;;;18.23;16.50;;;18.20;99.90;;;;;;4977242;28;20444;-76
2023/05/21 09:22:45;;;;;;;17.90;16.20;;;18.30;99.90;;;;;;4977404;28;20428;-76
2023/05/21 09:25:17;;;;;;;20.60;17.93;;;18.40;99.90;;;;;;4977487;28;20472;-76
2023/05/21 09:27:45;;;;;;;19.60;17.70;;;18.40;99.90;;;;;;4977552;28;20481;-76
2023/05/21 09:30:16;;;;;;;17.97;16.27;;;18.50;99.90;;;;;;4977330;28;20517;-76
2023/05/21 09:32:45;;;;;;;18.73;16.93;;;18.60;99.90;;;;;;4977423;28;20431;-76
2023/05/21 09:35:15;;;;;;;19.43;17.63;;;18.60;99.90;;;;;;4981023;28;20448;-77
2023/05/21 09:37:47;;;;;;;20.63;18.67;;;18.70;99.90;;;;;;4980545;28;20450;-75
2023/05/21 09:40:18;;;;;;;19.33;17.37;;;18.80;99.90;;;;;;4977397;28;20457;-75
2023/05/21 09:42:47;;;;;;;19.07;17.20;;;18.80;99.90;;;;;;4975708;28;20437;-76
2023/05/21 09:45:19;;;;;;;19.07;17.27;;;18.90;99.90;;;;;;4975393;28;20445;-75
2023/05/21 09:47:50;;;;;;;20.53;18.57;;;19.00;99.90;;;;;;4975675;28;20441;-76
2023/05/21 09:50:19;;;;;;;19.77;17.87;;;19.00;99.90;;;;;;4975401;28;20823;-76
2023/05/21 09:52:49;;;;;;;18.40;16.77;;;19.10;99.90;;;;;;4975251;28;20453;-76
2023/05/21 09:55:22;;;;;;;21.23;19.23;;;19.10;99.90;;;;;;4976534;28;20479;-76
2023/05/21 09:57:51;;;;;;;20.30;18.20;;;19.20;99.90;;;;;;4975476;28;20441;-76
2023/05/21 10:00:21;;;;;;;19.97;18.07;;;19.20;99.90;;;;;;4979360;28;20528;-77
2023/05/21 10:02:54;;;;;;;21.50;19.50;;;19.20;99.90;;;;;;4980362;28;20453;-79
2023/05/21 10:05:26;;;;;;;20.23;18.33;;;19.30;99.90;;;;;;4979342;28;20477;-78
2023/05/21 10:07:59;;;;;;;21.50;19.50;;;19.30;99.90;;;;;;4979800;28;21034;-77
2023/05/21 10:10:54;;;;;;;18.50;16.60;;;19.40;99.90;;;;;;4984234;28;20596;-75
2023/05/21 10:13:24;;;;;;;20.57;18.60;;;19.50;99.90;;;;;;4982044;28;20445;-84
2023/05/21 10:16:01;;;;;;;21.00;19.03;;;19.60;99.90;;;;;;4982445;28;20516;-83
2023/05/21 10:18:32;;;;;;;20.33;18.43;;;19.70;99.90;;;;;;4989507;28;20521;-83
2023/05/21 10:21:01;;;;;;;20.00;18.20;;;19.70;99.90;;;;;;4988438;28;20473;-81
2023/05/21 10:23:30;;;;;;;21.47;19.30;;;19.80;99.90;;;;;;4986562;28;20449;-81
2023/05/21 10:26:00;;;;;;;20.73;18.60;;;19.90;99.90;;;;;;4987533;28;20830;-81
2023/05/21 10:28:30;;;;;;;19.63;17.73;;;19.90;99.90;;;;;;4984735;28;20972;-80
2023/05/21 10:30:59;;;;;;;20.77;18.80;;;20.00;99.90;;;;;;4985014;28;20465;-80
2023/05/21 10:33:29;;;;;;;20.13;18.23;;;20.10;99.90;;;;;;4986017;28;20484;-82
2023/05/21 10:35:59;;;;;;;18.13;16.43;;;20.10;99.90;;;;;;4982835;28;20480;-79
2023/05/21 10:38:29;;;;;;;19.17;17.43;;;20.20;99.90;;;;;;4988942;28;20438;-81
2023/05/21 10:40:59;;;;;;;19.70;18.00;;;20.30;99.90;;;;;;4986023;28;20453;-81
2023/05/21 10:43:45;;;;;;;20.10;18.30;;;20.30;99.90;;;;;;4985943;28;20449;-79
2023/05/21 10:46:57;;;;;;;19.73;17.93;;;20.40;99.90;;;;;;4986941;28;20457;-80
2023/05/21 10:49:38;;;;;;;19.73;17.73;;;20.50;99.90;;;;;;4982306;28;20445;-80
2023/05/21 10:52:20;;;;;;;19.83;18.03;;;20.60;99.90;;;;;;4983884;28;20434;-80
2023/05/21 10:55:05;;;;;;;19.90;17.97;;;20.70;99.90;;;;;;4988243;28;20481;-80
2023/05/21 10:58:00;;;;;;;20.37;18.30;;;20.80;99.90;;;;;;4990258;28;20449;-80
2023/05/21 11:00:30;;;;;;;19.93;17.83;;;20.80;99.90;;;;;;4987989;28;20493;-80
2023/05/21 11:02:59;;;;;;;18.73;16.93;;;20.90;99.90;;;;;;4987019;28;20445;-80
2023/05/21 11:05:41;;;;;;;17.50;15.93;;;21.00;99.90;;;;;;4985917;28;20481;-80
2023/05/21 11:08:23;;;;;;;19.40;17.40;;;21.00;99.90;;;;;;4987211;28;20464;-80
2023/05/21 11:10:56;;;;;;;18.60;16.90;;;21.10;99.90;;;;;;4980224;28;20469;-81
2023/05/21 11:13:30;;;;;;;18.37;16.60;;;21.10;99.90;;;;;;4979487;28;20964;-82
2023/05/21 11:16:06;;;;;;;17.50;15.80;;;21.20;99.90;;;;;;4978709;28;20556;-80
2023/05/21 11:18:57;;;;;;;17.40;15.70;;;21.20;99.90;;;;;;4978932;28;20476;-83
2023/05/21 11:21:29;;;;;;;20.63;18.77;;;21.30;99.90;;;;;;4979803;28;20805;-83
2023/05/21 11:24:03;;;;;;;16.83;15.33;;;21.30;99.90;;;;;;4979965;28;20429;-82
2023/05/21 11:27:03;;;;;;;19.30;17.50;;;21.30;99.90;;;;;;4980913;28;20461;-78
2023/05/21 11:29:40;;;;;;;17.33;15.83;;;21.30;99.90;;;;;;4979213;28;20965;-80
2023/05/21 11:32:10;;;;;;;18.70;16.80;;;21.40;99.90;;;;;;4978217;28;20449;-79
2023/05/21 11:34:40;;;;;;;19.17;17.27;;;21.40;99.90;;;;;;4976909;28;20454;-79
2023/05/21 11:37:27;;;;;;;20.30;18.50;;;21.50;99.90;;;;;;4977655;28;20457;-81
2023/05/21 11:39:57;;;;;;;17.70;16.10;;;21.50;99.90;;;;;;4978874;28;20447;-81
2023/05/21 11:42:32;;;;;;;18.93;17.13;;;21.60;99.90;;;;;;4978229;28;20470;-81
2023/05/21 11:45:03;;;;;;;18.20;16.67;;;21.60;99.90;;;;;;4977125;28;20468;-82
2023/05/21 11:47:32;;;;;;;18.63;16.83;;;21.70;99.90;;;;;;4976806;28;20955;-79
2023/05/21 11:50:02;;;;;;;18.83;17.13;;;21.70;99.90;;;;;;4981003;28;20879;-82
2023/05/21 11:52:31;;;;;;;20.93;18.83;;;21.80;99.90;;;;;;4981109;28;20495;-80
2023/05/21 11:54:59;;;;;;;17.97;16.37;;;21.90;99.90;;;;;;4981532;28;20477;-80
2023/05/21 11:57:30;;;;;;;20.93;19.03;;;22.00;99.90;;;;;;4981466;28;20939;-79
2023/05/21 12:00:01;;;;;;;19.00;17.20;;;22.10;99.90;;;;;;4981370;28;20525;-79
2023/05/21 12:02:45;;;;;;;19.10;17.33;;;22.00;99.90;;;;;;4980973;28;20467;-80
2023/05/21 12:05:13;;;;;;;18.80;17.10;;;22.10;99.90;;;;;;4981420;28;20489;-80
2023/05/21 12:07:41;;;;;;;19.43;17.67;;;22.20;99.90;;;;;;4981260;28;20445;-80
2023/05/21 12:10:10;;;;;;;18.30;16.50;;;22.20;99.90;;;;;;4979517;28;20449;-80
2023/05/21 12:12:39;;;;;;;18.33;16.60;;;22.30;99.90;;;;;;4980558;28;20461;-81
2023/05/21 12:15:24;;;;;;;18.57;16.87;;;22.30;99.90;;;;;;4980322;28;20556;-81
2023/05/21 12:17:55;;;;;;;18.87;17.13;;;22.40;99.90;;;;;;4982929;28;20540;-81
2023/05/21 12:20:26;;;;;;;17.47;15.97;;;22.40;99.90;;;;;;4980096;28;20448;-81
2023/05/21 12:23:01;;;;;;;18.40;16.60;;;22.40;99.90;;;;;;4980003;28;20512;-81
2023/05/21 12:25:30;;;;;;;17.53;16.03;;;22.50;99.90;;;;;;4979426;28;20504;-80
2023/05/21 12:28:00;;;;;;;19.37;17.57;;;22.50;99.90;;;;;;4981231;28;20509;-81
2023/05/21 12:30:28;;;;;;;18.13;16.50;;;22.60;99.90;;;;;;4980514;28;21018;-81
2023/05/21 12:33:00;;;;;;;18.20;16.60;;;22.60;99.90;;;;;;4980872;28;20464;-81
2023/05/21 12:35:30;;;;;;;17.40;15.80;;;22.70;99.90;;;;;;4979465;28;20477;-84
2023/05/21 12:38:00;;;;;;;18.50;16.80;;;22.80;99.90;;;;;;4978923;28;20971;-81
2023/05/21 12:40:35;;;;;;;16.80;15.30;;;22.80;99.90;;;;;;4979187;28;20548;-80
2023/05/21 12:43:05;;;;;;;18.30;16.70;;;22.90;99.90;;;;;;4979392;28;20473;-81
2023/05/21 12:45:33;;;;;;;18.03;16.40;;;23.00;99.90;;;;;;4979416;28;20878;-81
2023/05/21 12:48:03;;;;;;;16.37;15.00;;;23.00;99.90;;;;;;4979149;28;20504;-81
2023/05/21 12:50:34;;;;;;;17.17;15.47;;;23.00;99.90;;;;;;4979456;28;20483;-83
2023/05/21 12:53:02;;;;;;;16.80;15.30;;;23.10;99.90;;;;;;4979383;28;20939;-83
2023/05/21 12:55:31;;;;;;;16.10;14.60;;;23.10;99.90;;;;;;4979600;28;20918;-83
2023/05/21 12:58:06;;;;;;;17.67;16.17;;;23.10;99.90;;;;;;4979816;28;20468;-82